Time;durP1;ratioP1;P1;durP2;ratioP2;P2;SDS_P1;SDS_P2;PMS_P1;PMS_P2;Temp;Humidity;BMP_temperature;BMP_pressure;BME280_temperature;BME280_humidity;BME280_pressure;Samples;Min_cycle;Max_cycle;Signal;HPM_P1;HPM_P2
2022/05/08 00:01:49;;;;;;;8.02;1.63;;;5.60;99.90;;;;;;4980187;28;20084;-82
2022/05/08 00:04:16;;;;;;;2.35;0.80;;;5.60;99.90;;;;;;4963365;28;20137;-82
2022/05/08 00:06:43;;;;;;;1.33;1.20;;;5.60;99.90;;;;;;4983188;28;20411;-82
2022/05/08 00:09:10;;;;;;;1.45;0.98;;;5.60;99.90;;;;;;4982786;28;20069;-82
2022/05/08 00:11:37;;;;;;;3.63;1.50;;;5.60;99.90;;;;;;4986802;28;20073;-81
2022/05/08 00:14:04;;;;;;;3.90;0.95;;;5.50;99.90;;;;;;4979042;28;20050;-81
2022/05/08 00:16:31;;;;;;;1.13;1.02;;;5.50;99.90;;;;;;4961240;28;20093;-81
2022/05/08 00:18:58;;;;;;;5.35;1.73;;;5.50;99.90;;;;;;4975793;28;20451;-81
2022/05/08 00:21:25;;;;;;;1.58;0.90;;;5.50;99.90;;;;;;4974865;28;20185;-81
2022/05/08 00:23:52;;;;;;;4.65;1.40;;;5.50;99.90;;;;;;4963010;28;20042;-81
2022/05/08 00:26:19;;;;;;;5.00;1.30;;;5.50;99.90;;;;;;4982170;28;20185;-81
2022/05/08 00:28:46;;;;;;;8.98;1.30;;;5.50;99.90;;;;;;4984836;28;20077;-81
2022/05/08 00:31:13;;;;;;;5.72;1.00;;;5.40;99.90;;;;;;4984427;28;20054;-81
2022/05/08 00:33:40;;;;;;;1.70;1.13;;;5.40;99.90;;;;;;4981556;28;20594;-81
2022/05/08 00:36:09;;;;;;;4.50;0.88;;;5.40;99.90;;;;;;4984435;28;20050;-81
2022/05/08 00:38:36;;;;;;;3.47;0.85;;;5.40;99.90;;;;;;4958943;28;20489;-81
2022/05/08 00:41:03;;;;;;;1.45;0.63;;;5.30;99.90;;;;;;4979218;28;20514;-81
2022/05/08 00:43:36;;;;;;;2.22;1.20;;;5.30;99.90;;;;;;4973407;28;20324;-81
2022/05/08 00:46:11;;;;;;;7.97;2.00;;;5.20;99.90;;;;;;4962610;28;20051;-80
2022/05/08 00:48:41;;;;;;;3.08;1.05;;;5.20;99.90;;;;;;4979071;28;20141;-81
2022/05/08 00:51:10;;;;;;;1.70;0.70;;;5.20;99.90;;;;;;4958000;28;20526;-81
2022/05/08 00:53:48;;;;;;;8.80;1.25;;;5.10;99.90;;;;;;4991378;28;20050;-82
2022/05/08 00:56:16;;;;;;;2.25;1.27;;;5.10;99.90;;;;;;4995061;28;20069;-82
2022/05/08 00:58:46;;;;;;;4.03;1.00;;;5.10;99.90;;;;;;4976929;28;20054;-81
2022/05/08 01:01:13;;;;;;;3.33;1.10;;;5.00;99.90;;;;;;4981325;28;20129;-82
2022/05/08 01:03:40;;;;;;;2.05;1.33;;;5.10;99.90;;;;;;4977471;28;20420;-81
2022/05/08 01:06:10;;;;;;;2.90;1.35;;;5.10;99.90;;;;;;4961596;28;20466;-82
2022/05/08 01:08:45;;;;;;;2.28;0.77;;;5.00;99.90;;;;;;4966385;28;20055;-82
2022/05/08 01:11:12;;;;;;;2.45;1.20;;;5.00;99.90;;;;;;4994226;28;20565;-82
2022/05/08 01:13:41;;;;;;;8.57;1.45;;;5.00;99.90;;;;;;4976586;28;20100;-82
2022/05/08 01:16:12;;;;;;;2.25;1.77;;;5.00;99.90;;;;;;5002832;28;20053;-82
2022/05/08 01:18:43;;;;;;;3.47;1.33;;;5.00;99.90;;;;;;4998749;28;20384;-82
2022/05/08 01:21:14;;;;;;;2.03;1.10;;;4.90;99.90;;;;;;5001742;28;20137;-81
2022/05/08 01:23:41;;;;;;;;;;;4.90;99.90;;;;;;4998159;28;20436;-81
2022/05/08 01:26:08;;;;;;;6.03;1.35;;;4.90;99.90;;;;;;4980017;28;19925;-81
2022/05/08 01:28:35;;;;;;;3.15;1.52;;;4.90;99.90;;;;;;4986448;28;20045;-81
2022/05/08 01:31:02;;;;;;;3.42;1.08;;;4.90;99.90;;;;;;4980309;28;20141;-81
2022/05/08 01:33:30;;;;;;;4.65;1.30;;;4.90;99.90;;;;;;4965022;28;20070;-81
2022/05/08 01:35:57;;;;;;;4.28;2.15;;;4.90;99.90;;;;;;4965598;28;20042;-81
2022/05/08 01:38:24;;;;;;;2.33;1.25;;;4.80;99.90;;;;;;4980290;28;20049;-81
2022/05/08 01:40:51;;;;;;;4.65;1.30;;;4.80;99.90;;;;;;4979237;28;20147;-81
2022/05/08 01:43:18;;;;;;;3.63;1.25;;;4.70;99.90;;;;;;4979172;28;20049;-81
2022/05/08 01:45:47;;;;;;;4.00;1.33;;;4.70;99.90;;;;;;4979919;28;20046;-81
2022/05/08 01:48:23;;;;;;;1.52;1.40;;;4.70;99.90;;;;;;4997355;28;20057;-81
2022/05/08 01:50:54;;;;;;;3.75;2.08;;;4.70;99.90;;;;;;4982391;28;20141;-81
2022/05/08 01:53:23;;;;;;;3.30;0.90;;;4.60;99.90;;;;;;4964244;28;20050;-81
2022/05/08 01:55:54;;;;;;;4.57;1.63;;;4.60;99.90;;;;;;4978834;28;20136;-81
2022/05/08 01:58:22;;;;;;;1.55;1.15;;;4.50;99.90;;;;;;4980425;28;20058;-81
2022/05/08 02:00:50;;;;;;;5.25;2.08;;;4.60;99.90;;;;;;4997231;28;20046;-81
2022/05/08 02:03:19;;;;;;;2.10;1.10;;;4.50;99.90;;;;;;4981203;28;20108;-81
2022/05/08 02:05:46;;;;;;;1.73;1.38;;;4.50;99.90;;;;;;4994475;28;20054;-81
2022/05/08 02:08:13;;;;;;;2.60;1.40;;;4.50;99.90;;;;;;4998831;28;20271;-81
2022/05/08 02:10:44;;;;;;;4.80;1.57;;;4.40;99.90;;;;;;4993882;28;20471;-81
2022/05/08 02:13:11;;;;;;;4.75;1.63;;;4.40;99.90;;;;;;4996881;28;20073;-81
2022/05/08 02:15:38;;;;;;;3.90;1.58;;;4.40;99.90;;;;;;4980253;28;20421;-81
2022/05/08 02:18:07;;;;;;;3.75;1.42;;;4.40;99.90;;;;;;4999841;28;20089;-81
2022/05/08 02:20:36;;;;;;;2.05;1.27;;;4.30;99.90;;;;;;4981809;28;20104;-81
2022/05/08 02:23:03;;;;;;;4.53;1.67;;;4.30;99.90;;;;;;4982077;28;20195;-81
2022/05/08 02:25:31;;;;;;;1.23;1.10;;;4.30;99.90;;;;;;4998931;28;20042;-81
2022/05/08 02:27:57;;;;;;;3.47;1.80;;;4.30;99.90;;;;;;4976007;28;20468;-81
2022/05/08 02:30:28;;;;;;;2.70;1.13;;;4.30;99.90;;;;;;4992839;28;20378;-81
2022/05/08 02:32:56;;;;;;;2.90;1.30;;;4.30;99.90;;;;;;4982340;28;20050;-81
2022/05/08 02:35:23;;;;;;;3.28;1.00;;;4.30;99.90;;;;;;4997671;28;20053;-81
2022/05/08 02:37:53;;;;;;;2.22;1.67;;;4.30;99.90;;;;;;4998783;28;20881;-81
2022/05/08 02:40:24;;;;;;;2.15;1.45;;;4.30;99.90;;;;;;4999802;28;20092;-81
2022/05/08 02:42:52;;;;;;;2.88;1.77;;;4.30;99.90;;;;;;4996817;28;20069;-81
2022/05/08 02:45:19;;;;;;;4.05;0.90;;;4.20;99.90;;;;;;4980950;28;20058;-81
2022/05/08 02:47:47;;;;;;;1.73;1.17;;;4.20;99.90;;;;;;4981519;28;20509;-81
2022/05/08 02:50:14;;;;;;;5.75;2.38;;;4.10;99.90;;;;;;4982793;28;20507;-81
2022/05/08 02:52:41;;;;;;;5.30;1.65;;;4.10;99.90;;;;;;4999450;28;20101;-81
2022/05/08 03:00:44;;;;;;;2.50;1.85;;;3.90;99.90;;;;;;4996801;28;20104;-80
2022/05/08 03:03:12;;;;;;;3.33;1.67;;;3.90;99.90;;;;;;4980080;28;20140;-79
2022/05/08 03:05:44;;;;;;;1.90;1.35;;;3.90;99.90;;;;;;4996299;28;20060;-80
2022/05/08 03:08:14;;;;;;;4.88;1.63;;;3.80;99.90;;;;;;4990524;28;20100;-80
2022/05/08 03:13:27;;;;;;;4.47;1.60;;;3.80;99.90;;;;;;4990959;28;19953;-80
2022/05/08 03:15:54;;;;;;;3.67;1.63;;;3.80;99.90;;;;;;4999832;28;20069;-80
2022/05/08 03:18:22;;;;;;;4.38;1.38;;;3.80;99.90;;;;;;4997148;28;20611;-80
2022/05/08 03:20:49;;;;;;;3.08;1.27;;;3.80;99.90;;;;;;4996537;28;20046;-80
2022/05/08 03:23:16;;;;;;;2.50;1.33;;;3.80;99.90;;;;;;4979649;28;20042;-79
2022/05/08 03:25:43;;;;;;;4.47;1.90;;;3.80;99.90;;;;;;4992367;28;20500;-79
2022/05/08 03:28:12;;;;;;;2.50;1.55;;;3.70;99.90;;;;;;4991644;28;20228;-80
2022/05/08 03:30:40;;;;;;;2.17;1.60;;;3.70;99.90;;;;;;5000973;28;20038;-80
2022/05/08 03:33:09;;;;;;;4.22;1.80;;;3.70;99.90;;;;;;4979802;28;20048;-80
2022/05/08 03:35:38;;;;;;;1.52;1.25;;;3.70;99.90;;;;;;4995682;28;20050;-80
2022/05/08 03:38:06;;;;;;;2.40;1.73;;;3.70;99.90;;;;;;4974028;28;20144;-80
2022/05/08 03:40:34;;;;;;;2.15;1.83;;;3.80;99.90;;;;;;4980669;28;20100;-80
2022/05/08 03:43:02;;;;;;;2.25;1.85;;;3.90;99.90;;;;;;4997401;28;20073;-80
2022/05/08 03:45:29;;;;;;;2.78;1.67;;;3.90;99.90;;;;;;4997034;28;20049;-80
2022/05/08 03:47:56;;;;;;;2.72;1.67;;;4.00;99.90;;;;;;4998679;28;20100;-80
2022/05/08 03:50:23;;;;;;;2.75;1.92;;;4.00;99.90;;;;;;5001675;28;20138;-80
2022/05/08 03:52:50;;;;;;;2.47;1.58;;;4.10;99.90;;;;;;4998598;28;20112;-80
2022/05/08 03:55:17;;;;;;;3.30;2.25;;;4.30;99.90;;;;;;4998933;28;20131;-80
2022/05/08 03:57:45;;;;;;;3.72;2.03;;;4.40;99.90;;;;;;4965296;28;20140;-80
2022/05/08 04:00:14;;;;;;;4.47;1.60;;;4.50;99.90;;;;;;4998293;28;20048;-80
2022/05/08 04:02:41;;;;;;;7.78;2.40;;;4.80;99.90;;;;;;5000041;28;20399;-80
2022/05/08 04:05:09;;;;;;;2.60;1.55;;;5.00;99.90;;;;;;4997974;28;20048;-80
2022/05/08 04:07:40;;;;;;;4.05;1.23;;;5.20;99.90;;;;;;4980260;28;20085;-80
2022/05/08 04:10:08;;;;;;;1.85;1.50;;;5.30;99.90;;;;;;4983357;28;20125;-81
2022/05/08 04:12:35;;;;;;;5.80;1.13;;;5.40;99.90;;;;;;5001202;28;20100;-81
2022/05/08 04:16:15;;;;;;;3.90;1.50;;;5.50;99.90;;;;;;5001480;28;20138;-80
2022/05/08 04:17:53;;;;;;;3.60;2.03;;;5.60;99.90;;;;;;4980387;28;20045;-81
2022/05/08 04:20:21;;;;;;;3.72;2.30;;;5.60;99.90;;;;;;4982562;28;20063;-81
2022/05/08 04:25:33;;;;;;;5.32;1.70;;;5.70;99.90;;;;;;4997802;28;20044;-81
2022/05/08 04:28:00;;;;;;;5.50;1.95;;;5.70;99.90;;;;;;4999704;28;20104;-81
2022/05/08 04:30:27;;;;;;;5.10;1.38;;;5.80;99.90;;;;;;4998408;28;20092;-81
2022/05/08 04:32:54;;;;;;;4.35;1.77;;;5.80;99.90;;;;;;4980241;28;20132;-81
2022/05/08 04:35:21;;;;;;;3.35;1.42;;;5.90;99.90;;;;;;4993319;28;21040;-81
2022/05/08 04:37:48;;;;;;;5.00;1.63;;;5.90;99.90;;;;;;4983534;28;20144;-81
2022/05/08 04:40:15;;;;;;;8.93;1.55;;;6.00;99.90;;;;;;5000824;28;20049;-81
2022/05/08 04:42:42;;;;;;;2.50;1.10;;;6.00;99.90;;;;;;4998676;28;20116;-81
2022/05/08 04:45:09;;;;;;;3.85;1.17;;;6.10;99.90;;;;;;4999568;28;20459;-81
2022/05/08 04:47:37;;;;;;;5.45;1.63;;;6.20;99.90;;;;;;4997408;28;20129;-81
2022/05/08 04:50:04;;;;;;;3.15;1.85;;;6.30;99.90;;;;;;4999370;28;20182;-80
2022/05/08 04:52:31;;;;;;;5.63;2.47;;;6.40;99.90;;;;;;5000264;28;20530;-80
2022/05/08 04:55:03;;;;;;;3.80;0.90;;;6.40;99.90;;;;;;4984139;28;20046;-80
2022/05/08 04:57:30;;;;;;;;;;;6.50;99.90;;;;;;4995396;28;20046;-80
2022/05/08 04:59:58;;;;;;;2.15;1.30;;;6.60;99.90;;;;;;5000066;28;19926;-80
2022/05/08 05:02:28;;;;;;;5.88;1.27;;;6.60;99.90;;;;;;4995488;28;20057;-80
2022/05/08 05:04:55;;;;;;;2.28;0.80;;;6.70;99.90;;;;;;5000303;28;20129;-80
2022/05/08 05:07:21;;;;;;;3.33;1.45;;;6.70;99.90;;;;;;4997581;28;20463;-80
2022/05/08 05:09:48;;;;;;;2.17;1.10;;;6.80;99.90;;;;;;4999166;28;20120;-80
2022/05/08 05:12:15;;;;;;;1.83;1.35;;;6.80;99.90;;;;;;4981441;28;20112;-81
2022/05/08 05:14:42;;;;;;;2.50;1.10;;;6.90;99.90;;;;;;4997497;28;20050;-81
2022/05/08 05:17:09;;;;;;;2.25;1.15;;;6.90;99.90;;;;;;4996730;28;20100;-81
2022/05/08 05:19:36;;;;;;;1.15;0.77;;;7.00;99.90;;;;;;4998490;28;20728;-81
2022/05/08 05:22:03;;;;;;;8.38;1.83;;;7.10;99.90;;;;;;4984562;28;20045;-81
2022/05/08 05:24:30;;;;;;;2.05;0.80;;;7.20;99.90;;;;;;4998228;28;20049;-81
2022/05/08 05:26:58;;;;;;;1.15;0.80;;;7.40;99.90;;;;;;4981938;28;20077;-81
2022/05/08 05:29:25;;;;;;;5.63;1.50;;;7.50;99.90;;;;;;4979792;28;20045;-81
2022/05/08 05:31:52;;;;;;;1.67;0.80;;;7.60;99.90;;;;;;4982820;28;20040;-81
2022/05/08 05:34:19;;;;;;;2.35;1.25;;;7.70;99.90;;;;;;4981322;28;20113;-81
2022/05/08 05:36:46;;;;;;;1.42;0.70;;;7.90;99.90;;;;;;5003367;28;20050;-81
2022/05/08 05:39:13;;;;;;;5.80;1.27;;;8.00;99.90;;;;;;4987467;28;20302;-82
2022/05/08 05:41:40;;;;;;;2.00;1.13;;;8.00;99.90;;;;;;4980646;28;20173;-81
2022/05/08 05:44:07;;;;;;;2.33;0.75;;;8.10;99.90;;;;;;5003416;28;20073;-81
2022/05/08 05:49:20;;;;;;;2.10;0.80;;;8.20;99.90;;;;;;4995400;28;20123;-82
2022/05/08 05:51:46;;;;;;;2.22;0.98;;;8.20;99.90;;;;;;4995932;28;20073;-82
2022/05/08 05:54:13;;;;;;;1.27;0.60;;;8.30;99.90;;;;;;4979449;28;20049;-81
2022/05/08 05:56:41;;;;;;;1.75;0.70;;;8.40;99.90;;;;;;5000764;28;20104;-81
2022/05/08 05:59:08;;;;;;;1.23;0.90;;;8.40;99.90;;;;;;4980094;28;20290;-82
2022/05/08 06:01:55;;;;;;;2.38;1.13;;;8.40;99.90;;;;;;4994259;28;20065;-81
2022/05/08 06:04:23;;;;;;;3.03;0.70;;;8.40;99.90;;;;;;4998095;28;20056;-82
2022/05/08 06:06:49;;;;;;;2.63;0.77;;;8.40;99.90;;;;;;4997802;28;20059;-81
2022/05/08 06:09:16;;;;;;;2.55;0.80;;;8.40;99.90;;;;;;5000054;28;20077;-81
2022/05/08 06:11:44;;;;;;;2.35;1.00;;;8.50;99.90;;;;;;4995361;28;20121;-80
2022/05/08 06:14:11;;;;;;;1.23;0.77;;;8.60;99.90;;;;;;4965091;28;20105;-81
2022/05/08 06:16:38;;;;;;;3.08;0.93;;;8.70;99.90;;;;;;4983191;28;20081;-81
2022/05/08 06:19:06;;;;;;;1.13;0.80;;;8.80;99.90;;;;;;5000738;28;20068;-80
2022/05/08 06:21:33;;;;;;;1.75;1.02;;;8.80;99.90;;;;;;4997352;28;20061;-81
2022/05/08 06:24:00;;;;;;;4.95;1.10;;;8.90;99.90;;;;;;4998226;28;20422;-81
2022/05/08 06:26:26;;;;;;;1.15;0.93;;;8.90;99.90;;;;;;4996261;28;20050;-81
2022/05/08 06:28:55;;;;;;;2.72;0.80;;;9.00;99.90;;;;;;4996597;28;20957;-80
2022/05/08 06:31:22;;;;;;;2.08;0.70;;;9.00;99.90;;;;;;4989921;28;20096;-81
2022/05/08 06:33:49;;;;;;;1.33;0.60;;;9.00;99.90;;;;;;4980401;28;20336;-80
2022/05/08 06:36:16;;;;;;;5.05;0.70;;;9.10;99.90;;;;;;4983296;28;20050;-81
2022/05/08 06:38:44;;;;;;;1.13;0.60;;;9.10;99.90;;;;;;4999705;28;20042;-81
2022/05/08 06:41:11;;;;;;;4.40;0.95;;;9.20;99.90;;;;;;4980030;28;20152;-80
2022/05/08 06:43:40;;;;;;;2.25;0.55;;;9.20;99.90;;;;;;4997299;28;20831;-81
2022/05/08 06:46:09;;;;;;;11.30;1.15;;;9.40;99.90;;;;;;4982401;28;20111;-81
2022/05/08 06:48:36;;;;;;;1.85;0.68;;;9.40;99.90;;;;;;4981734;28;20046;-81
2022/05/08 06:51:04;;;;;;;1.58;0.50;;;9.50;99.90;;;;;;5000870;28;20041;-81
2022/05/08 06:53:31;;;;;;;3.10;0.60;;;9.60;99.90;;;;;;4996553;28;20045;-81
2022/05/08 06:55:58;;;;;;;0.93;0.52;;;9.60;99.90;;;;;;4981798;28;20049;-81
2022/05/08 06:58:25;;;;;;;2.30;0.60;;;9.70;99.90;;;;;;4994662;28;20077;-81
2022/05/08 07:03:39;;;;;;;2.45;0.52;;;9.60;99.90;;;;;;4993433;28;20475;-81
2022/05/08 07:06:06;;;;;;;1.15;0.15;;;9.60;99.90;;;;;;4998739;28;20728;-81
2022/05/08 07:08:35;;;;;;;2.72;0.95;;;9.60;99.90;;;;;;4997279;28;20179;-81
2022/05/08 07:11:02;;;;;;;5.13;0.80;;;9.60;99.90;;;;;;4981582;28;20152;-81
2022/05/08 07:13:32;;;;;;;0.65;0.50;;;9.60;99.90;;;;;;4993810;28;20472;-81
2022/05/08 07:16:00;;;;;;;2.97;0.40;;;9.70;99.90;;;;;;4984989;28;20169;-81
2022/05/08 07:18:27;;;;;;;1.80;1.33;;;9.70;99.90;;;;;;4978114;28;20774;-82
2022/05/08 07:20:55;;;;;;;2.90;0.75;;;9.60;99.90;;;;;;4997489;28;20133;-82
2022/05/08 07:23:22;;;;;;;3.33;0.88;;;9.60;99.90;;;;;;4979056;28;20508;-82
2022/05/08 07:25:49;;;;;;;1.55;0.95;;;9.60;99.90;;;;;;5003658;28;20104;-81
2022/05/08 07:28:16;;;;;;;2.05;0.63;;;9.70;99.90;;;;;;4981672;28;20129;-81
2022/05/08 07:30:44;;;;;;;2.17;0.60;;;9.80;99.90;;;;;;4983034;28;20056;-81
2022/05/08 07:33:10;;;;;;;1.58;0.75;;;10.00;99.90;;;;;;4967047;28;20149;-81
2022/05/08 07:38:28;;;;;;;1.60;0.68;;;10.10;99.90;;;;;;4985033;28;20295;-80
2022/05/08 07:41:00;;;;;;;2.08;0.65;;;10.20;99.90;;;;;;4982647;28;20052;-80
2022/05/08 07:43:27;;;;;;;0.75;0.60;;;10.20;99.90;;;;;;4998882;28;20042;-80
2022/05/08 07:45:54;;;;;;;2.13;0.50;;;10.20;99.90;;;;;;5002304;28;20109;-81
2022/05/08 07:48:21;;;;;;;0.82;0.55;;;10.30;99.90;;;;;;5001664;28;20073;-81
2022/05/08 07:50:49;;;;;;;1.77;0.57;;;10.30;99.90;;;;;;4983083;28;20479;-80
2022/05/08 07:53:20;;;;;;;2.92;1.00;;;10.20;99.90;;;;;;4978446;28;20049;-81
2022/05/08 07:55:57;;;;;;;1.45;0.63;;;10.20;99.90;;;;;;4983845;28;20812;-81
2022/05/08 07:58:28;;;;;;;3.33;1.00;;;10.40;99.90;;;;;;4983511;28;20050;-82
2022/05/08 08:01:00;;;;;;;1.05;0.55;;;10.50;99.90;;;;;;4983919;28;20046;-81
2022/05/08 08:03:30;;;;;;;1.33;0.85;;;10.60;99.90;;;;;;4996487;28;20144;-81
2022/05/08 08:05:58;;;;;;;1.17;0.63;;;10.70;99.90;;;;;;4986004;28;20069;-81
2022/05/08 08:08:36;;;;;;;2.92;0.98;;;10.90;99.90;;;;;;4982613;28;20820;-81
2022/05/08 08:11:06;;;;;;;1.77;0.52;;;11.20;99.90;;;;;;4986483;28;20149;-81
2022/05/08 08:13:34;;;;;;;2.33;0.70;;;11.30;99.90;;;;;;5003146;28;20046;-81
2022/05/08 08:16:05;;;;;;;2.92;0.70;;;11.30;99.20;;;;;;5000358;28;20523;-81
2022/05/08 08:18:38;;;;;;;2.90;0.55;;;11.20;98.80;;;;;;4983076;28;20463;-81
2022/05/08 08:21:09;;;;;;;2.42;0.70;;;11.20;99.10;;;;;;5000628;28;20081;-81
2022/05/08 08:23:37;;;;;;;3.47;1.17;;;11.10;99.80;;;;;;4999358;28;20386;-81
2022/05/08 08:26:04;;;;;;;1.95;0.70;;;11.10;99.60;;;;;;4969166;28;20046;-81
2022/05/08 08:28:30;;;;;;;1.90;0.77;;;11.00;98.50;;;;;;5000448;28;20280;-81
2022/05/08 08:30:57;;;;;;;2.53;0.63;;;11.00;99.30;;;;;;4984675;28;20081;-81
2022/05/08 08:33:26;;;;;;;2.03;0.65;;;11.00;98.10;;;;;;4980831;28;20050;-81
2022/05/08 08:35:53;;;;;;;1.48;0.50;;;10.90;97.20;;;;;;4995523;28;20176;-81
2022/05/08 08:38:20;;;;;;;3.38;0.60;;;10.70;97.90;;;;;;5000181;28;20065;-81
2022/05/08 08:40:49;;;;;;;0.90;0.70;;;10.70;98.60;;;;;;4996385;28;20381;-81
2022/05/08 08:43:17;;;;;;;3.58;2.13;;;10.70;98.70;;;;;;4998970;28;20124;-81
2022/05/08 08:48:33;;;;;;;1.27;0.90;;;10.80;99.90;;;;;;4993835;28;20058;-81
2022/05/08 08:51:02;;;;;;;2.20;1.02;;;10.50;99.90;;;;;;4999894;28;20045;-81
2022/05/08 08:53:30;;;;;;;2.63;0.70;;;10.40;99.90;;;;;;4998907;28;20053;-81
2022/05/08 08:55:59;;;;;;;2.92;0.55;;;10.30;99.90;;;;;;5000505;28;20050;-81
2022/05/08 08:58:26;;;;;;;1.27;0.50;;;10.30;99.90;;;;;;5002672;28;20061;-81
2022/05/08 09:00:54;;;;;;;0.60;0.50;;;10.40;99.90;;;;;;4983324;28;20065;-81
2022/05/08 09:03:25;;;;;;;4.00;1.60;;;10.50;99.90;;;;;;4979670;28;20126;-81
2022/05/08 09:05:57;;;;;;;0.93;0.70;;;10.60;99.90;;;;;;4983048;28;20109;-81
2022/05/08 09:08:28;;;;;;;3.15;0.80;;;10.60;99.90;;;;;;5005482;28;20045;-81
2022/05/08 09:10:58;;;;;;;2.47;0.50;;;10.70;99.90;;;;;;4981568;28;20069;-81
2022/05/08 09:13:26;;;;;;;2.10;0.70;;;10.80;99.90;;;;;;4997902;28;20406;-83
2022/05/08 09:16:05;;;;;;;3.60;0.88;;;10.90;99.50;;;;;;4999118;28;20108;-83
2022/05/08 09:18:45;;;;;;;0.93;0.43;;;11.00;99.30;;;;;;4992944;28;20053;-83
2022/05/08 09:24:13;;;;;;;1.00;0.55;;;11.40;96.00;;;;;;4985107;28;20042;-83
2022/05/08 09:26:41;;;;;;;0.75;0.75;;;11.60;95.10;;;;;;4977695;28;20127;-81
2022/05/08 09:29:21;;;;;;;4.00;1.27;;;11.60;93.50;;;;;;4995738;28;20053;-82
2022/05/08 09:31:48;;;;;;;2.15;0.77;;;11.60;96.70;;;;;;4996811;28;20041;-82
2022/05/08 09:34:15;;;;;;;3.25;0.65;;;11.40;97.20;;;;;;4978218;28;20073;-81
2022/05/08 09:36:42;;;;;;;3.50;1.20;;;11.30;97.20;;;;;;5001145;28;20604;-81
2022/05/08 09:39:09;;;;;;;4.25;0.70;;;11.30;99.50;;;;;;4983080;28;20455;-81
2022/05/08 09:41:42;;;;;;;1.98;0.82;;;11.00;98.50;;;;;;4999482;28;20168;-81
2022/05/08 09:44:15;;;;;;;1.17;0.50;;;10.90;99.90;;;;;;4999039;28;20133;-80
2022/05/08 09:46:47;;;;;;;2.70;0.63;;;11.00;98.10;;;;;;4993290;28;20113;-81
2022/05/08 09:49:25;;;;;;;2.67;0.60;;;10.90;97.40;;;;;;4997098;28;20050;-82
2022/05/08 09:51:53;;;;;;;1.75;0.50;;;10.80;98.80;;;;;;4977095;28;20402;-82
2022/05/08 09:54:20;;;;;;;2.90;0.70;;;10.90;97.40;;;;;;5000595;28;20060;-82
2022/05/08 09:56:49;;;;;;;2.25;0.35;;;11.00;96.30;;;;;;4981558;28;20081;-82
2022/05/08 09:59:16;;;;;;;2.67;1.00;;;11.10;95.30;;;;;;5000589;28;20145;-82
2022/05/08 10:01:43;;;;;;;2.88;1.13;;;11.20;95.50;;;;;;4998148;28;20084;-82
2022/05/08 10:04:11;;;;;;;2.53;0.65;;;11.20;96.70;;;;;;4982737;28;20124;-83
2022/05/08 10:06:41;;;;;;;1.30;0.60;;;11.20;96.30;;;;;;4995554;28;20042;-82
2022/05/08 10:14:53;;;;;;;2.25;0.57;;;10.90;94.70;;;;;;4997315;28;20957;-80
2022/05/08 10:17:38;;;;;;;2.33;0.85;;;10.80;94.90;;;;;;4999198;28;20402;-81
2022/05/08 10:20:06;;;;;;;0.75;0.57;;;10.80;96.00;;;;;;5000173;28;20624;-81
2022/05/08 10:22:50;;;;;;;1.48;0.50;;;11.00;95.50;;;;;;5001237;28;20445;-81
2022/05/08 10:25:17;;;;;;;2.50;0.47;;;11.10;95.00;;;;;;4999307;28;20496;-81
2022/05/08 10:28:07;;;;;;;1.27;0.88;;;11.10;94.30;;;;;;4997711;28;20155;-81
2022/05/08 10:30:34;;;;;;;3.00;0.93;;;11.20;93.30;;;;;;5001785;28;20069;-81
2022/05/08 10:33:01;;;;;;;2.90;0.70;;;11.20;93.40;;;;;;5001176;28;20049;-81
2022/05/08 10:35:30;;;;;;;2.28;1.30;;;11.40;93.50;;;;;;4999755;28;20792;-81
2022/05/08 10:38:00;;;;;;;4.22;0.90;;;11.60;93.50;;;;;;5001186;28;20451;-81
2022/05/08 10:40:30;;;;;;;1.45;0.45;;;11.90;93.00;;;;;;4997688;28;20077;-81
2022/05/08 10:42:59;;;;;;;0.98;0.40;;;11.70;92.10;;;;;;5000204;28;20053;-81
2022/05/08 10:45:31;;;;;;;1.90;0.60;;;11.70;91.70;;;;;;4995148;28;20491;-81
2022/05/08 10:48:18;;;;;;;1.50;0.40;;;11.90;92.70;;;;;;4983654;28;20073;-81
2022/05/08 10:50:56;;;;;;;1.05;0.73;;;11.60;91.80;;;;;;4991925;28;20042;-81
2022/05/08 10:53:24;;;;;;;4.22;1.27;;;11.60;92.40;;;;;;4998418;28;20117;-81
2022/05/08 10:55:53;;;;;;;3.80;0.80;;;11.70;91.90;;;;;;4982912;28;20100;-80
2022/05/08 10:58:23;;;;;;;1.05;0.70;;;11.70;92.10;;;;;;4998534;28;20050;-81
2022/05/08 11:00:57;;;;;;;1.83;0.68;;;11.80;91.00;;;;;;4999967;28;20073;-81
2022/05/08 11:03:25;;;;;;;1.15;0.30;;;11.60;90.80;;;;;;4994677;28;20275;-81
2022/05/08 11:05:52;;;;;;;1.65;0.82;;;11.60;91.80;;;;;;5001506;28;20203;-80
2022/05/08 11:08:31;;;;;;;1.27;0.60;;;11.40;94.30;;;;;;5000010;28;20098;-81
2022/05/08 11:11:02;;;;;;;4.00;0.70;;;11.20;94.90;;;;;;4984230;28;20160;-80
2022/05/08 11:13:47;;;;;;;1.83;0.40;;;11.30;94.70;;;;;;4997399;28;20057;-81
2022/05/08 11:16:33;;;;;;;0.60;0.60;;;11.20;94.70;;;;;;5000637;28;20100;-81
2022/05/08 11:19:03;;;;;;;1.73;0.40;;;11.30;93.70;;;;;;4998370;28;20533;-83
2022/05/08 11:21:31;;;;;;;1.15;0.70;;;11.50;95.30;;;;;;4980733;28;20576;-81
2022/05/08 11:23:58;;;;;;;1.25;0.70;;;11.60;94.80;;;;;;4998085;28;20549;-80
2022/05/08 11:26:33;;;;;;;2.63;0.50;;;11.60;95.50;;;;;;4996516;28;20148;-81
2022/05/08 11:29:01;;;;;;;0.30;0.30;;;11.40;95.70;;;;;;4999822;28;20197;-81
2022/05/08 11:31:28;;;;;;;2.20;0.52;;;11.20;95.40;;;;;;4998529;28;20046;-82
2022/05/08 11:36:44;;;;;;;1.75;0.60;;;11.40;96.30;;;;;;4999352;28;20073;-82
2022/05/08 11:39:16;;;;;;;4.57;1.30;;;11.30;96.30;;;;;;4982766;28;20108;-80
2022/05/08 11:41:57;;;;;;;1.13;0.40;;;11.10;95.80;;;;;;4980915;28;20151;-80
2022/05/08 11:44:24;;;;;;;;;;;11.00;97.10;;;;;;4982502;28;20046;-81
2022/05/08 11:46:51;;;;;;;2.53;0.63;;;10.90;97.40;;;;;;5000118;28;20004;-81
2022/05/08 11:49:21;;;;;;;1.63;1.05;;;10.70;97.60;;;;;;4980334;28;20783;-81
2022/05/08 11:51:58;;;;;;;3.20;0.55;;;10.70;98.00;;;;;;4972280;28;20053;-81
2022/05/08 11:54:32;;;;;;;4.28;0.75;;;10.70;99.30;;;;;;4998112;28;20506;-81
2022/05/08 11:57:12;;;;;;;1.85;0.80;;;10.70;99.30;;;;;;4999961;28;20333;-81
2022/05/08 11:59:40;;;;;;;2.75;0.88;;;10.60;99.90;;;;;;4998157;28;20136;-82
2022/05/08 12:02:07;;;;;;;4.60;0.93;;;10.50;99.90;;;;;;5007077;28;20050;-81
2022/05/08 12:04:34;;;;;;;2.45;0.63;;;10.20;99.90;;;;;;4992629;28;20080;-81
2022/05/08 12:07:08;;;;;;;3.28;0.85;;;10.00;99.90;;;;;;4980923;28;20491;-81
2022/05/08 12:09:46;;;;;;;2.63;0.77;;;10.10;99.90;;;;;;5001007;28;20136;-81
2022/05/08 12:12:30;;;;;;;0.98;0.57;;;10.20;99.90;;;;;;4978601;28;20042;-80
2022/05/08 12:15:20;;;;;;;0.68;0.65;;;10.20;99.90;;;;;;4985579;28;20497;-80
2022/05/08 12:17:46;;;;;;;0.88;0.70;;;10.10;99.90;;;;;;4977902;28;20053;-81
2022/05/08 12:20:15;;;;;;;3.58;0.70;;;10.10;99.90;;;;;;5002897;28;20077;-80
2022/05/08 12:22:43;;;;;;;3.15;0.57;;;10.00;99.90;;;;;;4983826;28;20057;-82
2022/05/08 12:25:14;;;;;;;0.80;0.40;;;10.10;99.90;;;;;;5000747;28;20058;-81
2022/05/08 12:27:41;;;;;;;0.70;0.68;;;10.20;99.90;;;;;;4999908;28;20050;-81
2022/05/08 12:30:10;;;;;;;2.25;0.60;;;10.40;99.90;;;;;;5003214;28;20107;-81
2022/05/08 12:32:39;;;;;;;0.65;0.50;;;10.30;99.90;;;;;;4985461;28;20335;-81
2022/05/08 12:35:10;;;;;;;3.63;1.60;;;10.40;99.90;;;;;;5002962;28;20102;-81
2022/05/08 12:37:38;;;;;;;3.60;0.98;;;10.30;99.90;;;;;;4983234;28;20107;-81
2022/05/08 12:40:13;;;;;;;2.10;0.98;;;10.40;99.90;;;;;;5003240;28;20046;-81
2022/05/08 12:42:40;;;;;;;0.98;0.57;;;10.50;99.90;;;;;;4981789;28;20054;-80
2022/05/08 12:45:08;;;;;;;11.00;0.90;;;10.40;99.90;;;;;;4981880;28;20125;-82
2022/05/08 12:47:34;;;;;;;2.17;1.02;;;10.40;99.90;;;;;;4999912;28;20378;-81
2022/05/08 12:50:06;;;;;;;1.88;0.68;;;10.20;99.90;;;;;;5002547;28;20054;-81
2022/05/08 12:52:35;;;;;;;0.40;0.38;;;10.30;99.90;;;;;;5002621;28;20171;-81
2022/05/08 12:55:06;;;;;;;2.72;0.73;;;10.20;99.90;;;;;;4985320;28;20548;-81
2022/05/08 13:00:20;;;;;;;2.45;0.65;;;10.30;99.90;;;;;;4997836;28;20061;-81
2022/05/08 13:02:48;;;;;;;1.50;0.40;;;10.30;99.90;;;;;;5003995;28;20050;-81
2022/05/08 13:05:15;;;;;;;2.97;1.13;;;10.60;99.90;;;;;;5003724;28;20105;-81
2022/05/08 13:07:42;;;;;;;0.90;0.60;;;10.70;99.90;;;;;;5000402;28;20096;-82
2022/05/08 13:10:09;;;;;;;1.63;1.08;;;10.60;99.90;;;;;;4984747;28;20049;-81
2022/05/08 13:12:36;;;;;;;1.08;0.40;;;10.40;99.90;;;;;;4998917;28;20055;-82
2022/05/08 13:15:04;;;;;;;0.32;0.30;;;10.50;99.90;;;;;;5002461;28;20458;-82
2022/05/08 13:17:32;;;;;;;2.58;0.70;;;10.40;99.90;;;;;;5000332;28;20077;-81
2022/05/08 13:20:02;;;;;;;1.10;0.50;;;10.60;99.90;;;;;;5000804;28;20046;-81
2022/05/08 13:22:28;;;;;;;1.50;1.40;;;10.20;99.90;;;;;;5002742;28;20428;-82
2022/05/08 13:24:59;;;;;;;3.08;0.70;;;10.00;99.90;;;;;;4984553;28;20057;-82
2022/05/08 13:27:27;;;;;;;1.13;0.90;;;10.10;99.90;;;;;;4998009;28;20069;-81
2022/05/08 13:29:53;;;;;;;2.10;0.50;;;10.10;99.90;;;;;;4983689;28;20046;-82
2022/05/08 13:32:20;;;;;;;1.35;0.57;;;10.30;99.90;;;;;;5001166;28;20111;-82
2022/05/08 13:34:47;;;;;;;0.93;0.30;;;10.60;99.90;;;;;;5003213;28;20172;-81
2022/05/08 13:37:15;;;;;;;0.40;0.40;;;11.00;99.90;;;;;;4980473;28;20127;-81
2022/05/08 13:39:42;;;;;;;2.08;0.55;;;11.20;99.90;;;;;;4996473;28;20042;-81